Airfield :
LOGIN :

Register | Disclaimer

   EN    FR    IT 

 










Legend :    VFR   Marginal VFR   IFR   Intensive IFR   Very Intensive IFR
Visi :
Ceiling :
>= 8 km
>= 3000ft
5 to 8 km
1000 to 3000 ft
1500m to 5 km
500 to 1000 ft
800 to 1500m
200 to 500 ft
< 800m
< 200 ft
Symbols :   Thunderstorms  Fog  Heavy snow  Heavy precipitations  Wind > 20 kt
SIGMETs :     Misc.  Thunderstorms  Icing  Turbulence  Mountain Waves  Volcanic Ashes






- Airport Elevation : 526 ft
- IATA code : LTN


EGGW - London Luton

CURRENT METAR :
  • 230420Z AUTO 17007KT 150V210 1600 BR VV/// 11/11 Q1007

EXPIRED METARs :
  • 230350Z AUTO 17005KT 150V210 0300 R25/0800 FG OVC001 11/10 Q1007
  • 230320Z AUTO 18007KT 140V240 0400 R25/0900 FG OVC001 11/10 Q1008
  • 230250Z AUTO 18006KT 150V210 1200 R25/P1500 BR OVC001 11/10 Q1008
  • 230220Z AUTO 17007KT 140V210 3500 BR OVC002 11/10 Q1008
  • 230150Z AUTO 17005KT 9999 SCT005 BKN009 10/09 Q1009

TAF AMD TAF EGGW
Valid from the 23 at 03:00 until the 24 at 00:00 UTC


230326Z 2303/2324 17005KT 0300 FG BKN000
BECMG 2303/2306 6000 SCT009
PROB30
TEMPO 2303/2308 +SHRA
BECMG 2306/2309 9999 NSW
TEMPO 2306/2310 BKN009
BECMG 2307/2310 23010KT
TEMPO 2314/2318 8000 -RA BKN012
ATIS : +44 1582 395 204



MET'MAP, your aeronautical weather chart ! - Copyright ORBIFLY December 2007 - Disclaimer

ORBIFLY MET'MAP TEAM :

Programming & Development : Alexandra Zaïnal
Concept & original design : Baudouin d'Aumeries
Assistance for programming : Marc-Olivier Méhu
Technical & hardware support : Manuel Goepfert

Contact : metmap@orbifly.com




SOURCES & CREDITS :

   NOAA